Time;durP1;ratioP1;P1;durP2;ratioP2;P2;SDS_P1;SDS_P2;PMS_P1;PMS_P2;Temp;Humidity;BMP_temperature;BMP_pressure;BME280_temperature;BME280_humidity;BME280_pressure;Samples;Min_cycle;Max_cycle;Signal;HPM_P1;HPM_P2
2023/08/13 00:01:24;;;;;;;0.52;0.52;;;15.80;99.90;;;;;;5112476;28;20258;-72
2023/08/13 00:03:50;;;;;;;0.40;0.40;;;15.80;99.90;;;;;;5113449;28;20218;-72
2023/08/13 00:06:15;;;;;;;0.60;0.60;;;15.80;99.90;;;;;;5113610;28;20206;-72
2023/08/13 00:08:41;;;;;;;0.35;0.35;;;15.90;99.90;;;;;;5113304;28;20297;-72
2023/08/13 00:11:11;;;;;;;0.30;0.30;;;15.80;99.90;;;;;;5113232;28;20665;-72
2023/08/13 00:13:39;;;;;;;0.73;0.63;;;15.90;99.90;;;;;;5113040;28;20216;-71
2023/08/13 00:16:06;;;;;;;0.50;0.50;;;15.80;99.90;;;;;;5113497;28;20190;-71
2023/08/13 00:18:32;;;;;;;0.38;0.38;;;15.80;99.90;;;;;;5091162;28;20614;-71
2023/08/13 00:20:59;;;;;;;2.05;0.95;;;15.80;99.90;;;;;;5101030;28;20240;-71
2023/08/13 00:23:25;;;;;;;2.90;0.73;;;15.80;99.90;;;;;;5113074;28;20195;-71
2023/08/13 00:25:51;;;;;;;0.60;0.60;;;15.80;99.90;;;;;;5113346;28;20732;-71
2023/08/13 00:28:16;;;;;;;6.80;0.70;;;15.80;99.90;;;;;;5112882;28;20211;-71
2023/08/13 00:30:42;;;;;;;0.40;0.38;;;15.80;99.90;;;;;;5112753;28;20206;-71
2023/08/13 00:33:08;;;;;;;0.73;0.60;;;15.80;99.90;;;;;;5113202;27;20558;-71
2023/08/13 00:35:34;;;;;;;2.60;0.85;;;15.80;99.90;;;;;;5112830;28;20198;-71
2023/08/13 00:37:59;;;;;;;1.00;1.00;;;15.80;99.90;;;;;;5112983;28;20194;-71
2023/08/13 00:40:25;;;;;;;1.08;0.73;;;15.80;99.90;;;;;;5113314;28;20253;-71
2023/08/13 00:42:51;;;;;;;0.32;0.32;;;15.80;99.90;;;;;;5114081;28;20191;-71
2023/08/13 00:45:17;;;;;;;0.63;0.63;;;15.80;99.90;;;;;;5097452;28;20199;-72
2023/08/13 00:47:44;;;;;;;0.30;0.30;;;15.80;99.90;;;;;;5113269;28;20218;-72
2023/08/13 00:50:11;;;;;;;0.75;0.75;;;15.80;99.90;;;;;;5113572;28;20510;-71
2023/08/13 00:53:11;;;;;;;0.60;0.60;;;15.80;99.90;;;;;;5115412;28;20188;-72
2023/08/13 00:55:38;;;;;;;0.32;0.32;;;15.70;99.90;;;;;;5096055;28;20200;-71
2023/08/13 00:58:04;;;;;;;0.88;0.80;;;15.70;99.90;;;;;;5113550;28;20199;-71
2023/08/13 01:00:57;;;;;;;0.43;0.43;;;15.70;99.90;;;;;;5115165;28;20286;-71
2023/08/13 01:03:22;;;;;;;0.50;0.50;;;15.70;99.90;;;;;;5089158;28;20237;-67
2023/08/13 01:06:00;;;;;;;0.50;0.50;;;15.70;99.90;;;;;;5101128;22;20231;-72
2023/08/13 01:09:17;;;;;;;0.55;0.55;;;15.70;99.90;;;;;;5091935;28;20210;-73
2023/08/13 01:12:12;;;;;;;0.40;0.40;;;15.70;99.90;;;;;;5041734;28;20204;-73
2023/08/13 01:15:11;;;;;;;0.95;0.50;;;15.70;99.90;;;;;;5055902;28;20203;-73
2023/08/13 01:17:43;;;;;;;0.30;0.30;;;15.70;99.90;;;;;;5055467;28;20693;-73
2023/08/13 01:20:09;;;;;;;0.40;0.40;;;15.70;99.90;;;;;;5070148;28;20189;-73
2023/08/13 01:22:58;;;;;;;0.50;0.50;;;15.70;99.90;;;;;;5071856;28;20197;-73
2023/08/13 01:25:28;;;;;;;0.50;0.50;;;15.70;99.90;;;;;;5071128;28;20581;-73
2023/08/13 01:28:15;;;;;;;0.50;0.50;;;15.70;99.90;;;;;;5071451;28;20200;-73
2023/08/13 01:30:52;;;;;;;0.45;0.45;;;15.70;99.90;;;;;;5072203;28;20253;-74
2023/08/13 01:33:26;;;;;;;0.90;0.50;;;15.60;99.90;;;;;;5057644;28;20189;-74
2023/08/13 01:35:56;;;;;;;0.70;0.70;;;15.60;99.90;;;;;;5075688;28;20189;-74
2023/08/13 01:38:23;;;;;;;0.40;0.40;;;15.60;99.90;;;;;;5075525;28;20634;-73
2023/08/13 01:40:50;;;;;;;0.32;0.32;;;15.60;99.90;;;;;;5057625;28;20207;-74
2023/08/13 01:43:16;;;;;;;0.60;0.55;;;15.60;99.90;;;;;;5075554;28;20228;-73
2023/08/13 01:45:41;;;;;;;1.85;0.90;;;15.60;99.90;;;;;;5075270;28;20642;-73
2023/08/13 01:48:08;;;;;;;1.38;0.65;;;15.50;99.90;;;;;;5075310;28;20279;-73
2023/08/13 01:50:34;;;;;;;0.40;0.40;;;15.50;99.90;;;;;;5078529;28;20191;-74
2023/08/13 01:53:00;;;;;;;0.40;0.40;;;15.50;99.90;;;;;;5095825;28;20597;-74
2023/08/13 01:55:26;;;;;;;0.40;0.40;;;15.50;99.90;;;;;;5095376;28;20283;-74
2023/08/13 01:57:51;;;;;;;0.63;0.55;;;15.40;99.90;;;;;;5094170;28;20306;-74
2023/08/13 02:00:17;;;;;;;0.32;0.32;;;15.40;99.90;;;;;;5095123;28;20188;-73
2023/08/13 02:02:43;;;;;;;0.38;0.38;;;15.40;99.90;;;;;;5093741;28;20200;-74
2023/08/13 02:05:09;;;;;;;0.77;0.77;;;15.40;99.90;;;;;;5094721;28;20228;-74
2023/08/13 02:07:34;;;;;;;0.30;0.30;;;15.30;99.90;;;;;;5094654;28;20284;-74
2023/08/13 02:10:00;;;;;;;0.45;0.45;;;15.20;99.90;;;;;;5084349;28;20219;-73
2023/08/13 02:12:26;;;;;;;0.38;0.38;;;15.20;99.90;;;;;;5074705;28;20188;-73
2023/08/13 02:14:51;;;;;;;0.30;0.30;;;15.20;99.90;;;;;;5074568;28;20201;-74
2023/08/13 02:17:17;;;;;;;0.52;0.52;;;15.10;99.90;;;;;;5074728;28;20232;-74
2023/08/13 02:19:43;;;;;;;0.30;0.30;;;15.10;99.90;;;;;;5074818;28;20185;-74
2023/08/13 02:22:09;;;;;;;0.45;0.45;;;15.10;99.90;;;;;;5074304;28;20558;-73
2023/08/13 02:24:35;;;;;;;1.17;1.08;;;15.10;99.90;;;;;;5074500;28;20234;-72
2023/08/13 02:27:00;;;;;;;0.40;0.40;;;15.00;99.90;;;;;;5074480;28;20185;-72
2023/08/13 02:29:26;;;;;;;1.25;0.77;;;15.00;99.90;;;;;;5074225;28;20755;-73
2023/08/13 02:31:52;;;;;;;0.68;0.68;;;14.90;99.90;;;;;;5073117;28;20223;-73
2023/08/13 02:34:17;;;;;;;0.45;0.45;;;14.90;99.90;;;;;;5074324;28;20276;-73
2023/08/13 02:36:43;;;;;;;0.50;0.50;;;14.90;99.90;;;;;;5074201;28;20240;-68
2023/08/13 02:39:09;;;;;;;0.63;0.63;;;14.90;99.90;;;;;;5074206;28;20192;-68
2023/08/13 02:41:35;;;;;;;0.40;0.40;;;14.90;99.90;;;;;;5074083;28;20221;-68
2023/08/13 02:44:00;;;;;;;0.40;0.40;;;14.80;99.90;;;;;;5072970;28;20255;-68
2023/08/13 02:46:26;;;;;;;0.47;0.47;;;14.80;99.90;;;;;;5074581;28;20197;-68
2023/08/13 02:48:54;;;;;;;0.70;0.70;;;14.70;99.90;;;;;;5094607;28;20222;-67
2023/08/13 02:51:20;;;;;;;0.30;0.30;;;14.60;99.90;;;;;;5094193;28;20198;-69
2023/08/13 02:53:46;;;;;;;4.18;1.27;;;14.60;99.90;;;;;;5076000;28;20296;-68
2023/08/13 02:56:12;;;;;;;0.50;0.50;;;14.60;99.90;;;;;;5094225;28;20650;-67
2023/08/13 02:58:38;;;;;;;0.52;0.50;;;14.60;99.90;;;;;;5093929;28;20216;-67
2023/08/13 03:01:04;;;;;;;0.60;0.60;;;14.60;99.90;;;;;;5085713;28;20193;-69
2023/08/13 03:03:30;;;;;;;0.60;0.60;;;14.50;99.90;;;;;;5073227;28;20564;-69
2023/08/13 03:05:57;;;;;;;0.40;0.40;;;14.50;99.90;;;;;;5073239;28;20256;-68
2023/08/13 03:08:23;;;;;;;0.40;0.40;;;14.50;99.90;;;;;;5073401;28;20239;-68
2023/08/13 03:10:48;;;;;;;0.55;0.55;;;14.50;99.90;;;;;;5073611;28;20201;-67
2023/08/13 03:13:14;;;;;;;0.68;0.68;;;14.50;99.90;;;;;;5073481;28;20193;-67
2023/08/13 03:15:40;;;;;;;0.63;0.63;;;14.50;99.90;;;;;;5073263;28;20196;-68
2023/08/13 03:18:07;;;;;;;0.70;0.70;;;14.40;99.90;;;;;;5073513;28;20299;-68
2023/08/13 03:20:33;;;;;;;0.50;0.50;;;14.40;99.90;;;;;;5072944;28;20299;-67
2023/08/13 03:22:59;;;;;;;0.38;0.38;;;14.40;99.90;;;;;;5054886;28;20545;-68
2023/08/13 03:25:25;;;;;;;0.40;0.40;;;14.40;99.90;;;;;;5073175;28;20193;-67
2023/08/13 03:27:50;;;;;;;0.38;0.38;;;14.40;99.90;;;;;;5073289;28;20221;-68
2023/08/13 03:30:16;;;;;;;0.47;0.47;;;14.40;99.90;;;;;;5073652;28;20238;-68
2023/08/13 03:32:42;;;;;;;0.40;0.40;;;14.30;99.90;;;;;;5055170;28;20212;-67
2023/08/13 03:35:08;;;;;;;0.50;0.50;;;14.30;99.90;;;;;;5073261;28;20199;-67
2023/08/13 03:37:34;;;;;;;0.40;0.40;;;14.30;99.90;;;;;;5072937;28;20201;-68
2023/08/13 03:39:59;;;;;;;0.60;0.60;;;14.30;99.90;;;;;;5073106;28;20200;-68
2023/08/13 03:42:25;;;;;;;0.40;0.40;;;14.20;99.90;;;;;;5072887;28;20223;-68
2023/08/13 03:44:51;;;;;;;0.40;0.40;;;14.20;99.90;;;;;;5091528;28;20629;-67
2023/08/13 03:47:16;;;;;;;0.50;0.50;;;14.20;99.90;;;;;;5093247;28;20431;-68
2023/08/13 03:49:42;;;;;;;0.47;0.47;;;14.20;99.90;;;;;;5092999;28;20651;-67
2023/08/13 03:52:11;;;;;;;0.40;0.40;;;14.20;99.90;;;;;;5093097;28;20271;-67
2023/08/13 03:54:37;;;;;;;0.47;0.47;;;14.20;99.90;;;;;;5092775;28;20197;-67
2023/08/13 03:57:03;;;;;;;1.08;0.60;;;14.20;99.90;;;;;;5093023;28;20196;-69
2023/08/13 03:59:28;;;;;;;0.40;0.40;;;14.20;99.90;;;;;;5092856;28;20406;-67
2023/08/13 04:01:54;;;;;;;0.50;0.50;;;14.20;99.90;;;;;;5087433;28;20217;-67
2023/08/13 04:04:20;;;;;;;0.60;0.60;;;14.20;99.90;;;;;;5072191;28;20240;-68
2023/08/13 04:06:46;;;;;;;0.60;0.60;;;14.20;99.90;;;;;;5072511;28;20588;-68
2023/08/13 04:09:11;;;;;;;0.40;0.40;;;14.20;99.90;;;;;;5072625;28;20205;-67
2023/08/13 04:11:37;;;;;;;0.60;0.60;;;14.20;99.90;;;;;;5072359;28;20199;-71
2023/08/13 04:14:03;;;;;;;0.55;0.55;;;14.20;99.90;;;;;;5054547;28;20667;-72
2023/08/13 04:16:29;;;;;;;0.40;0.40;;;14.20;99.90;;;;;;5072376;28;20193;-71
2023/08/13 04:18:54;;;;;;;0.57;0.57;;;14.20;99.90;;;;;;5072516;28;20213;-71
2023/08/13 04:21:20;;;;;;;0.40;0.40;;;14.20;99.90;;;;;;5071959;28;20568;-71
2023/08/13 04:23:46;;;;;;;0.50;0.50;;;14.20;99.90;;;;;;5072145;28;20345;-71
2023/08/13 04:26:11;;;;;;;0.50;0.50;;;14.20;99.90;;;;;;5072500;28;20203;-71
2023/08/13 04:28:37;;;;;;;0.90;0.88;;;14.20;99.90;;;;;;5072076;28;20212;-72
2023/08/13 04:31:03;;;;;;;0.40;0.40;;;14.30;99.90;;;;;;5072334;28;20192;-72
2023/08/13 04:33:29;;;;;;;0.70;0.70;;;14.30;99.90;;;;;;5072280;28;20195;-68
2023/08/13 04:35:55;;;;;;;0.63;0.63;;;14.30;99.90;;;;;;5072332;28;20200;-67
2023/08/13 04:38:21;;;;;;;0.40;0.40;;;14.30;99.90;;;;;;5071996;28;20219;-68
2023/08/13 04:40:47;;;;;;;0.50;0.50;;;14.30;99.90;;;;;;5088024;28;20233;-67
2023/08/13 04:43:14;;;;;;;0.73;0.70;;;14.40;99.90;;;;;;5092550;28;20215;-68
2023/08/13 04:45:40;;;;;;;0.60;0.60;;;14.50;99.90;;;;;;5092188;28;20212;-67
2023/08/13 04:48:06;;;;;;;0.63;0.63;;;14.50;99.90;;;;;;5092389;28;20252;-68
2023/08/13 04:50:32;;;;;;;0.30;0.30;;;14.60;99.90;;;;;;5092336;28;20192;-68
2023/08/13 04:52:58;;;;;;;0.98;0.88;;;14.60;99.90;;;;;;5092349;28;20696;-68
2023/08/13 04:55:24;;;;;;;0.30;0.30;;;14.70;99.90;;;;;;5092160;28;20196;-68
2023/08/13 04:57:50;;;;;;;0.45;0.45;;;14.70;99.90;;;;;;5089255;28;20197;-68
2023/08/13 05:00:16;;;;;;;1.17;0.68;;;14.70;99.90;;;;;;5072072;28;20197;-68
2023/08/13 05:02:41;;;;;;;0.90;0.80;;;14.80;99.90;;;;;;5053712;28;20209;-68
2023/08/13 05:05:07;;;;;;;0.50;0.50;;;14.70;99.90;;;;;;5071742;28;20651;-68
2023/08/13 05:07:33;;;;;;;0.88;0.75;;;14.80;99.90;;;;;;5075059;28;20208;-68
2023/08/13 05:09:59;;;;;;;0.50;0.50;;;14.80;99.90;;;;;;5075826;28;20246;-69
2023/08/13 05:12:25;;;;;;;0.60;0.60;;;14.80;99.90;;;;;;5075771;28;20659;-68
2023/08/13 05:14:50;;;;;;;0.32;0.32;;;14.80;99.90;;;;;;5075968;28;20192;-67
2023/08/13 05:17:20;;;;;;;0.68;0.68;;;14.70;99.90;;;;;;5075784;28;20552;-69
2023/08/13 05:19:46;;;;;;;0.43;0.43;;;14.80;99.90;;;;;;5075782;28;20543;-68
2023/08/13 05:22:12;;;;;;;1.75;1.13;;;14.80;99.90;;;;;;5075503;28;20235;-67
2023/08/13 05:24:38;;;;;;;0.40;0.40;;;14.80;99.90;;;;;;5075440;28;20205;-67
2023/08/13 05:27:04;;;;;;;0.45;0.45;;;14.80;99.90;;;;;;5075656;28;20194;-67
2023/08/13 05:29:30;;;;;;;0.40;0.40;;;14.80;99.90;;;;;;5074102;28;20266;-67
2023/08/13 05:31:55;;;;;;;0.40;0.40;;;14.80;99.90;;;;;;5075775;28;20204;-67
2023/08/13 05:34:21;;;;;;;0.40;0.40;;;14.90;99.90;;;;;;5075326;28;20193;-67
2023/08/13 05:36:47;;;;;;;0.68;0.68;;;14.90;99.90;;;;;;5089297;28;20223;-67
2023/08/13 05:39:13;;;;;;;6.63;1.13;;;15.10;99.90;;;;;;5095659;28;20249;-67
2023/08/13 05:41:38;;;;;;;0.60;0.60;;;15.40;99.90;;;;;;5095647;28;20200;-67
2023/08/13 05:44:04;;;;;;;0.60;0.60;;;15.70;99.90;;;;;;5094230;28;20199;-68
2023/08/13 05:46:30;;;;;;;0.40;0.40;;;16.00;99.90;;;;;;5095716;28;20552;-69
2023/08/13 05:48:56;;;;;;;0.55;0.55;;;16.20;99.90;;;;;;5095444;28;20215;-67
2023/08/13 05:51:22;;;;;;;0.75;0.65;;;16.50;99.90;;;;;;5076701;28;20725;-67
2023/08/13 05:53:48;;;;;;;0.52;0.52;;;16.80;99.90;;;;;;5094851;28;20666;-67
2023/08/13 05:56:14;;;;;;;0.30;0.30;;;17.00;99.90;;;;;;5075155;28;20189;-67
2023/08/13 05:58:39;;;;;;;0.38;0.38;;;17.20;99.90;;;;;;5074733;28;20671;-67
2023/08/13 06:01:05;;;;;;;0.45;0.45;;;17.30;99.90;;;;;;5056969;28;20197;-67
2023/08/13 06:03:32;;;;;;;0.45;0.45;;;17.50;99.90;;;;;;5056965;28;20223;-67
2023/08/13 06:05:58;;;;;;;0.65;0.65;;;17.60;99.90;;;;;;5074542;28;20236;-68
2023/08/13 06:08:24;;;;;;;0.40;0.40;;;17.50;99.90;;;;;;5074591;28;20208;-68
2023/08/13 06:10:50;;;;;;;0.40;0.40;;;17.30;99.90;;;;;;5074916;28;20270;-69
2023/08/13 06:13:16;;;;;;;0.40;0.40;;;17.50;99.90;;;;;;5053194;28;20193;-70
2023/08/13 06:15:41;;;;;;;0.40;0.40;;;17.80;99.90;;;;;;5054654;28;20600;-71
2023/08/13 06:18:07;;;;;;;0.75;0.50;;;18.10;99.90;;;;;;5036511;28;20198;-72
2023/08/13 06:20:33;;;;;;;0.40;0.40;;;18.50;99.90;;;;;;5059279;28;20299;-75
2023/08/13 06:22:59;;;;;;;0.45;0.45;;;18.50;99.90;;;;;;5074687;28;20618;-71
2023/08/13 06:25:24;;;;;;;0.20;0.20;;;18.70;99.90;;;;;;5075076;28;20242;-69
2023/08/13 06:27:50;;;;;;;0.32;0.32;;;18.70;99.90;;;;;;5073412;28;20208;-68
2023/08/13 06:30:16;;;;;;;0.52;0.52;;;18.40;99.90;;;;;;5074505;28;20196;-70
2023/08/13 06:32:42;;;;;;;3.15;0.50;;;18.30;99.90;;;;;;5085648;28;20241;-75
2023/08/13 06:35:08;;;;;;;0.40;0.35;;;18.20;99.90;;;;;;5094652;28;20200;-76
2023/08/13 06:37:34;;;;;;;0.63;0.63;;;18.00;99.90;;;;;;5094252;28;20191;-75
2023/08/13 06:40:00;;;;;;;0.40;0.40;;;18.10;99.90;;;;;;5094506;28;20726;-74
2023/08/13 06:42:25;;;;;;;0.30;0.30;;;18.20;99.90;;;;;;5094365;28;20267;-76
2023/08/13 06:44:51;;;;;;;0.30;0.30;;;18.20;99.90;;;;;;5094291;28;20185;-74
2023/08/13 06:47:17;;;;;;;0.50;0.50;;;18.30;99.90;;;;;;5094233;28;20313;-75
2023/08/13 06:49:43;;;;;;;0.30;0.30;;;18.60;99.90;;;;;;5094224;28;20192;-75
2023/08/13 06:52:08;;;;;;;0.40;0.40;;;18.90;99.90;;;;;;5060077;28;20197;-74
2023/08/13 06:54:34;;;;;;;0.30;0.30;;;18.90;99.90;;;;;;5073787;28;20193;-75
2023/08/13 06:57:00;;;;;;;0.20;0.20;;;19.20;99.90;;;;;;5074050;28;20200;-75
2023/08/13 06:59:26;;;;;;;1.75;1.27;;;19.50;99.90;;;;;;5073821;28;20189;-74
2023/08/13 07:01:52;;;;;;;3.20;1.40;;;19.50;99.90;;;;;;5073850;28;20216;-74
2023/08/13 07:04:17;;;;;;;0.30;0.30;;;19.50;99.90;;;;;;5073777;28;20319;-75
2023/08/13 07:06:43;;;;;;;0.40;0.32;;;19.90;99.90;;;;;;5073575;28;20207;-74
2023/08/13 07:09:09;;;;;;;0.35;0.32;;;20.50;99.90;;;;;;5073591;28;20205;-74
2023/08/13 07:11:36;;;;;;;0.28;0.28;;;20.30;99.90;;;;;;5073599;28;20193;-74
2023/08/13 07:14:03;;;;;;;0.40;0.40;;;20.30;99.90;;;;;;5073643;28;20191;-75
2023/08/13 07:16:29;;;;;;;0.30;0.30;;;20.30;99.90;;;;;;5073377;28;20191;-74
2023/08/13 07:18:55;;;;;;;0.63;0.63;;;20.00;99.90;;;;;;5073660;28;20601;-75
2023/08/13 07:21:21;;;;;;;0.50;0.50;;;19.80;99.90;;;;;;5073209;28;20193;-75
2023/08/13 07:23:48;;;;;;;0.45;0.45;;;19.60;99.90;;;;;;5072170;28;20196;-75
2023/08/13 07:26:14;;;;;;;0.40;0.40;;;19.50;99.90;;;;;;5072023;28;20228;-75
2023/08/13 07:28:40;;;;;;;0.20;0.20;;;19.50;99.90;;;;;;5072239;28;20234;-75
2023/08/13 07:31:06;;;;;;;0.20;0.20;;;19.40;99.90;;;;;;5073231;28;20563;-74
2023/08/13 07:33:32;;;;;;;0.60;0.60;;;19.30;99.90;;;;;;5072965;28;20664;-74
2023/08/13 07:36:03;;;;;;;3.13;0.68;;;19.50;99.90;;;;;;5073135;28;20644;-74
2023/08/13 07:38:28;;;;;;;0.28;0.28;;;19.80;99.90;;;;;;5073043;28;20193;-74
2023/08/13 07:40:56;;;;;;;0.85;0.50;;;20.30;99.90;;;;;;5073120;28;20196;-75
2023/08/13 07:43:24;;;;;;;0.50;0.30;;;20.20;99.90;;;;;;5071647;28;20197;-75
2023/08/13 07:45:50;;;;;;;0.25;0.25;;;20.20;99.90;;;;;;5072833;28;20192;-74
2023/08/13 07:48:16;;;;;;;0.30;0.30;;;20.20;99.90;;;;;;5087870;28;20216;-74
2023/08/13 07:50:42;;;;;;;7.72;1.02;;;20.60;99.90;;;;;;5068508;28;20304;-74
2023/08/13 07:53:08;;;;;;;0.40;0.32;;;20.80;99.90;;;;;;5072764;28;20189;-75
2023/08/13 07:55:34;;;;;;;0.40;0.40;;;20.60;99.90;;;;;;5072644;28;20188;-74
2023/08/13 07:57:59;;;;;;;3.40;0.68;;;20.60;99.90;;;;;;5072841;28;20192;-76
2023/08/13 08:00:26;;;;;;;0.30;0.30;;;20.50;99.90;;;;;;5072610;28;20564;-76
2023/08/13 08:02:53;;;;;;;0.40;0.40;;;20.50;99.90;;;;;;5072706;28;20193;-76
2023/08/13 08:05:19;;;;;;;0.45;0.45;;;21.10;99.90;;;;;;5050754;28;20324;-76
2023/08/13 08:07:45;;;;;;;0.20;0.20;;;21.20;99.90;;;;;;5052499;28;20209;-76
2023/08/13 08:10:11;;;;;;;0.20;0.20;;;20.90;99.90;;;;;;5052980;28;20189;-76
2023/08/13 08:12:37;;;;;;;0.40;0.40;;;20.80;99.90;;;;;;5052219;28;20223;-75
2023/08/13 08:15:05;;;;;;;0.30;0.30;;;20.60;99.90;;;;;;5052410;28;20260;-73
2023/08/13 08:17:31;;;;;;;0.30;0.30;;;20.50;99.90;;;;;;5050819;28;20203;-72
2023/08/13 08:19:59;;;;;;;0.68;0.40;;;20.50;99.90;;;;;;5050987;28;20205;-73
2023/08/13 08:22:25;;;;;;;0.28;0.28;;;20.70;99.90;;;;;;5052158;28;20304;-72
2023/08/13 08:24:51;;;;;;;0.20;0.20;;;20.80;99.90;;;;;;5060183;28;20228;-73
2023/08/13 08:27:17;;;;;;;0.20;0.20;;;21.00;99.90;;;;;;5072199;28;20189;-74
2023/08/13 08:29:43;;;;;;;0.30;0.30;;;21.30;99.90;;;;;;5071993;28;20671;-74
2023/08/13 08:32:08;;;;;;;0.32;0.32;;;21.20;99.90;;;;;;5072164;28;20542;-73
2023/08/13 08:34:34;;;;;;;0.40;0.40;;;21.00;99.90;;;;;;5071983;28;20246;-76
2023/08/13 08:37:00;;;;;;;0.30;0.30;;;20.70;99.90;;;;;;5087887;28;20583;-75
2023/08/13 08:39:26;;;;;;;0.20;0.20;;;20.50;99.90;;;;;;5072049;28;20225;-73
2023/08/13 08:41:56;;;;;;;0.35;0.35;;;20.40;99.90;;;;;;5087564;28;20196;-73
2023/08/13 08:44:23;;;;;;;0.20;0.20;;;20.40;99.90;;;;;;5056703;28;20185;-73
2023/08/13 08:46:50;;;;;;;0.20;0.20;;;20.60;99.90;;;;;;5051995;28;20690;-73
2023/08/13 08:49:17;;;;;;;0.43;0.43;;;20.80;99.90;;;;;;5051820;28;20237;-73
2023/08/13 08:51:45;;;;;;;0.38;0.38;;;20.80;99.90;;;;;;5051842;28;20561;-73
2023/08/13 08:54:11;;;;;;;0.30;0.30;;;20.80;99.90;;;;;;5052103;28;20193;-66
2023/08/13 08:56:37;;;;;;;0.43;0.43;;;20.90;99.90;;;;;;5051854;28;20701;-68
2023/08/13 08:59:03;;;;;;;0.20;0.20;;;21.00;99.90;;;;;;5051963;28;20277;-68
2023/08/13 09:01:28;;;;;;;0.30;0.30;;;21.30;99.90;;;;;;5051535;28;20197;-68
2023/08/13 09:03:55;;;;;;;0.60;0.60;;;21.40;99.90;;;;;;5052210;28;20224;-68
2023/08/13 09:06:20;;;;;;;0.30;0.30;;;21.70;99.90;;;;;;5053586;28;20201;-69
2023/08/13 09:08:46;;;;;;;0.63;0.50;;;22.10;99.90;;;;;;5071786;28;20567;-67
2023/08/13 09:11:12;;;;;;;0.38;0.38;;;22.70;99.90;;;;;;5071736;28;20199;-67
2023/08/13 09:13:50;;;;;;;0.30;0.30;;;23.50;99.90;;;;;;5071641;28;20200;-67
2023/08/13 09:16:16;;;;;;;8.85;0.52;;;23.60;99.90;;;;;;5071733;28;20196;-70
2023/08/13 09:18:42;;;;;;;10.02;0.50;;;23.40;99.90;;;;;;5071494;28;20543;-68
2023/08/13 09:21:11;;;;;;;5.57;0.47;;;23.50;99.90;;;;;;5079849;28;20279;-70
2023/08/13 09:23:40;;;;;;;0.63;0.40;;;23.60;99.90;;;;;;5091706;28;20195;-70
2023/08/13 09:26:05;;;;;;;0.45;0.43;;;23.30;99.90;;;;;;5091840;28;20181;-70
2023/08/13 09:28:32;;;;;;;0.30;0.30;;;22.80;99.90;;;;;;5091485;28;20279;-71
2023/08/13 09:30:58;;;;;;;0.43;0.43;;;23.20;99.90;;;;;;5092040;28;20275;-72
2023/08/13 09:33:24;;;;;;;0.40;0.40;;;23.30;99.90;;;;;;5091870;28;20220;-71
2023/08/13 09:35:49;;;;;;;0.30;0.30;;;23.40;99.90;;;;;;5091713;28;20235;-71
2023/08/13 09:38:15;;;;;;;0.28;0.28;;;23.20;99.90;;;;;;5091697;28;20199;-71
2023/08/13 09:40:44;;;;;;;0.20;0.20;;;22.80;99.90;;;;;;5075419;28;20205;-71
2023/08/13 09:43:15;;;;;;;0.28;0.28;;;22.80;99.90;;;;;;5071329;28;20212;-71
2023/08/13 09:45:43;;;;;;;0.40;0.40;;;22.80;99.90;;;;;;5071289;28;20285;-71
2023/08/13 09:48:10;;;;;;;0.25;0.25;;;22.90;99.90;;;;;;5071423;28;20680;-71
2023/08/13 09:50:40;;;;;;;0.30;0.30;;;23.00;99.90;;;;;;5071321;28;20679;-71
2023/08/13 09:53:13;;;;;;;0.50;0.50;;;22.60;99.90;;;;;;5073979;28;20205;-70
2023/08/13 09:55:51;;;;;;;0.43;0.43;;;22.30;99.90;;;;;;5074756;28;20667;-71
2023/08/13 09:58:21;;;;;;;0.20;0.20;;;22.20;99.90;;;;;;5074818;28;20694;-71
2023/08/13 10:00:47;;;;;;;0.47;0.45;;;22.20;99.90;;;;;;5073692;28;20664;-70
2023/08/13 10:03:15;;;;;;;0.85;0.40;;;22.10;99.90;;;;;;5074784;28;20199;-72
2023/08/13 10:05:43;;;;;;;0.10;0.10;;;22.00;99.90;;;;;;5074598;28;20233;-71
2023/08/13 10:08:08;;;;;;;0.50;0.50;;;21.60;99.90;;;;;;5074415;28;20197;-71
2023/08/13 10:10:36;;;;;;;0.17;0.17;;;21.40;99.90;;;;;;5074640;28;20563;-72
2023/08/13 10:13:03;;;;;;;0.43;0.25;;;21.20;99.90;;;;;;5074733;28;20211;-71
2023/08/13 10:15:30;;;;;;;0.50;0.40;;;20.90;99.90;;;;;;5074478;28;20196;-72
2023/08/13 10:17:58;;;;;;;0.20;0.20;;;20.80;99.90;;;;;;5087468;28;20230;-72
2023/08/13 10:20:25;;;;;;;0.30;0.30;;;20.90;99.90;;;;;;5090789;28;20192;-71
2023/08/13 10:22:52;;;;;;;0.40;0.35;;;21.00;99.90;;;;;;5074646;28;20199;-71
2023/08/13 10:25:33;;;;;;;1.83;0.95;;;20.90;99.90;;;;;;5074385;28;20379;-70
2023/08/13 10:28:00;;;;;;;0.30;0.30;;;20.70;99.90;;;;;;5074471;28;20548;-71
2023/08/13 10:30:25;;;;;;;0.50;0.50;;;20.90;99.90;;;;;;5074212;28;20220;-71
2023/08/13 10:32:56;;;;;;;0.63;0.63;;;21.20;99.90;;;;;;5074364;28;20223;-71
2023/08/13 10:35:37;;;;;;;0.68;0.63;;;21.20;99.90;;;;;;5072711;28;20735;-71
2023/08/13 10:38:04;;;;;;;0.90;0.60;;;20.90;99.90;;;;;;5074268;28;20196;-73
2023/08/13 10:40:30;;;;;;;0.20;0.20;;;20.80;99.90;;;;;;5074110;28;20220;-72
2023/08/13 10:42:57;;;;;;;0.40;0.40;;;20.90;99.90;;;;;;5074402;28;20220;-71
2023/08/13 10:45:29;;;;;;;0.40;0.40;;;21.10;99.90;;;;;;5056028;28;20250;-73
2023/08/13 10:48:05;;;;;;;0.40;0.40;;;21.40;99.90;;;;;;5073894;28;20189;-72
2023/08/13 10:50:37;;;;;;;1.67;0.35;;;21.80;99.90;;;;;;5073796;28;20193;-72
2023/08/13 10:53:19;;;;;;;0.85;0.75;;;22.20;99.90;;;;;;5073942;28;20564;-72
2023/08/13 10:55:48;;;;;;;0.65;0.65;;;22.50;99.90;;;;;;5073763;28;20502;-72
2023/08/13 10:58:26;;;;;;;0.10;0.10;;;22.50;99.90;;;;;;5073830;28;20185;-72
2023/08/13 11:01:00;;;;;;;0.32;0.32;;;22.30;99.90;;;;;;5073903;28;20653;-72
2023/08/13 11:03:30;;;;;;;0.40;0.40;;;22.10;99.90;;;;;;5072741;28;20268;-72
2023/08/13 11:05:56;;;;;;;0.20;0.20;;;22.00;99.90;;;;;;5073299;28;20708;-71
2023/08/13 11:08:23;;;;;;;0.20;0.20;;;22.00;99.90;;;;;;5073515;28;20207;-72
2023/08/13 11:10:50;;;;;;;7.22;0.57;;;22.00;99.90;;;;;;5073602;28;20188;-72
2023/08/13 11:13:17;;;;;;;0.40;0.30;;;21.90;99.90;;;;;;5073635;28;20192;-71
2023/08/13 11:15:55;;;;;;;0.40;0.40;;;22.10;99.90;;;;;;5073489;28;20192;-70
2023/08/13 11:18:21;;;;;;;0.68;0.47;;;22.60;99.90;;;;;;5073183;28;20287;-70
2023/08/13 11:20:48;;;;;;;0.30;0.30;;;22.90;99.90;;;;;;5073287;28;20667;-71
2023/08/13 11:23:15;;;;;;;0.20;0.20;;;22.80;99.90;;;;;;5072004;28;20235;-71
2023/08/13 11:25:42;;;;;;;0.20;0.20;;;22.80;99.90;;;;;;5073274;28;20284;-70
2023/08/13 11:28:07;;;;;;;0.30;0.30;;;22.90;99.90;;;;;;5073002;28;20192;-70
2023/08/13 11:30:38;;;;;;;0.32;0.32;;;22.60;99.90;;;;;;5072995;28;20200;-71
2023/08/13 11:33:04;;;;;;;0.98;0.68;;;22.40;99.90;;;;;;5072881;28;20192;-70
2023/08/13 11:35:30;;;;;;;0.20;0.20;;;22.30;99.90;;;;;;5072493;28;20683;-71
2023/08/13 11:37:56;;;;;;;0.30;0.30;;;22.10;99.90;;;;;;5072953;28;20208;-71
2023/08/13 11:40:22;;;;;;;2.13;0.57;;;21.90;99.90;;;;;;5073067;28;20192;-71
2023/08/13 11:42:57;;;;;;;0.20;0.20;;;21.90;99.90;;;;;;5072962;28;20652;-71
2023/08/13 11:45:30;;;;;;;0.40;0.40;;;21.90;99.90;;;;;;5054844;28;20201;-77
2023/08/13 11:48:14;;;;;;;0.40;0.40;;;22.10;99.90;;;;;;5072765;28;20671;-76
2023/08/13 11:50:41;;;;;;;0.30;0.30;;;22.20;99.90;;;;;;5072304;28;20196;-77
2023/08/13 11:53:15;;;;;;;0.20;0.20;;;22.40;99.90;;;;;;5072816;28;20189;-77
2023/08/13 11:55:47;;;;;;;2.55;0.85;;;22.50;99.90;;;;;;5072593;28;20189;-77
2023/08/13 11:58:18;;;;;;;0.40;0.40;;;22.80;99.90;;;;;;5072553;28;20741;-76
2023/08/13 12:00:48;;;;;;;1.60;0.60;;;23.10;99.90;;;;;;5072554;28;20188;-75
2023/08/13 12:03:14;;;;;;;0.20;0.20;;;23.10;99.90;;;;;;5071045;28;20257;-77
2023/08/13 12:05:42;;;;;;;0.45;0.45;;;22.90;99.90;;;;;;5072449;28;20241;-74
2023/08/13 12:08:09;;;;;;;0.30;0.30;;;22.70;99.90;;;;;;5072717;28;20554;-76
2023/08/13 12:10:36;;;;;;;0.68;0.50;;;22.50;99.90;;;;;;5072200;28;20220;-75
2023/08/13 12:13:03;;;;;;;0.50;0.50;;;22.90;99.90;;;;;;5072235;28;20636;-75
2023/08/13 12:15:30;;;;;;;6.55;0.50;;;23.30;99.90;;;;;;5072011;28;20189;-75
2023/08/13 12:17:59;;;;;;;0.20;0.20;;;24.00;99.90;;;;;;5072302;28;20623;-78
2023/08/13 12:20:27;;;;;;;0.50;0.50;;;24.50;99.90;;;;;;5071888;28;20197;-76
2023/08/13 12:22:54;;;;;;;11.35;1.08;;;24.70;99.90;;;;;;5072998;28;20215;-78
2023/08/13 12:25:19;;;;;;;0.65;0.65;;;24.40;99.90;;;;;;5072166;28;20707;-70
2023/08/13 12:27:51;;;;;;;1.13;0.93;;;23.90;99.90;;;;;;5072645;28;20220;-70
2023/08/13 12:30:17;;;;;;;1.90;0.95;;;23.60;99.90;;;;;;5072690;28;20250;-68
2023/08/13 12:32:43;;;;;;;0.32;0.32;;;23.60;99.90;;;;;;5042139;28;20205;-69
2023/08/13 12:35:09;;;;;;;0.30;0.30;;;23.70;99.90;;;;;;5052840;28;20231;-69
2023/08/13 12:37:34;;;;;;;0.60;0.47;;;23.50;99.90;;;;;;5052583;28;20189;-69
2023/08/13 12:40:00;;;;;;;0.20;0.20;;;23.40;99.90;;;;;;5052780;28;20628;-70
2023/08/13 12:42:26;;;;;;;0.50;0.50;;;23.40;99.90;;;;;;5052629;28;20189;-70
2023/08/13 12:44:52;;;;;;;1.65;0.80;;;23.70;99.90;;;;;;5052672;28;20258;-71
2023/08/13 12:47:18;;;;;;;0.40;0.40;;;23.70;99.90;;;;;;5061196;28;20193;-70
2023/08/13 12:49:44;;;;;;;1.02;0.70;;;23.20;99.90;;;;;;5072612;28;20208;-71